sensor_id;sensor_type;location;lat;lon;timestamp;temperature;humidity
70336;SHT31;57756;47.408;18.940;2022-10-16T00:01:17;14.40;82.32
70336;SHT31;57756;47.408;18.940;2022-10-16T00:03:44;14.34;82.15
70336;SHT31;57756;47.408;18.940;2022-10-16T00:06:10;14.33;81.82
70336;SHT31;57756;47.408;18.940;2022-10-16T00:08:37;14.29;81.28
70336;SHT31;57756;47.408;18.940;2022-10-16T00:11:08;14.29;82.12
70336;SHT31;57756;47.408;18.940;2022-10-16T00:13:37;14.23;81.92
70336;SHT31;57756;47.408;18.940;2022-10-16T00:16:04;14.18;81.71
70336;SHT31;57756;47.408;18.940;2022-10-16T00:18:30;14.16;82.36
70336;SHT31;57756;47.408;18.940;2022-10-16T00:23:30;14.12;82.43
70336;SHT31;57756;47.408;18.940;2022-10-16T00:25:57;14.05;82.44
70336;SHT31;57756;47.408;18.940;2022-10-16T00:28:24;14.04;81.79
70336;SHT31;57756;47.408;18.940;2022-10-16T00:30:49;13.99;82.25
70336;SHT31;57756;47.408;18.940;2022-10-16T00:33:15;13.98;82.41
70336;SHT31;57756;47.408;18.940;2022-10-16T00:35:40;13.92;82.45
70336;SHT31;57756;47.408;18.940;2022-10-16T00:38:06;13.91;82.00
70336;SHT31;57756;47.408;18.940;2022-10-16T00:40:31;13.95;81.03
70336;SHT31;57756;47.408;18.940;2022-10-16T00:42:57;13.89;81.93
70336;SHT31;57756;47.408;18.940;2022-10-16T00:45:23;13.79;82.52
70336;SHT31;57756;47.408;18.940;2022-10-16T00:47:50;13.72;82.48
70336;SHT31;57756;47.408;18.940;2022-10-16T00:50:33;13.68;82.77
70336;SHT31;57756;47.408;18.940;2022-10-16T00:53:00;13.61;82.78
70336;SHT31;57756;47.408;18.940;2022-10-16T00:55:27;13.55;83.16
70336;SHT31;57756;47.408;18.940;2022-10-16T00:57:56;13.50;83.38
70336;SHT31;57756;47.408;18.940;2022-10-16T01:00:25;13.43;83.39
70336;SHT31;57756;47.408;18.940;2022-10-16T01:02:56;13.27;83.58
70336;SHT31;57756;47.408;18.940;2022-10-16T01:05:23;13.20;83.76
70336;SHT31;57756;47.408;18.940;2022-10-16T01:08:22;13.14;83.72
70336;SHT31;57756;47.408;18.940;2022-10-16T01:13:21;13.03;84.15
70336;SHT31;57756;47.408;18.940;2022-10-16T01:15:54;12.97;84.30
70336;SHT31;57756;47.408;18.940;2022-10-16T01:18:33;12.88;84.43
70336;SHT31;57756;47.408;18.940;2022-10-16T01:21:03;12.86;84.86
70336;SHT31;57756;47.408;18.940;2022-10-16T01:23:55;12.78;84.82
70336;SHT31;57756;47.408;18.940;2022-10-16T01:29:13;12.68;85.05
70336;SHT31;57756;47.408;18.940;2022-10-16T01:31:42;12.58;85.13
70336;SHT31;57756;47.408;18.940;2022-10-16T01:34:15;12.54;85.25
70336;SHT31;57756;47.408;18.940;2022-10-16T01:36:47;12.45;85.55
70336;SHT31;57756;47.408;18.940;2022-10-16T01:39:16;12.41;85.55
70336;SHT31;57756;47.408;18.940;2022-10-16T01:41:47;12.38;85.67
70336;SHT31;57756;47.408;18.940;2022-10-16T01:44:18;12.34;85.88
70336;SHT31;57756;47.408;18.940;2022-10-16T01:46:47;12.23;85.86
70336;SHT31;57756;47.408;18.940;2022-10-16T01:49:14;12.19;85.95
70336;SHT31;57756;47.408;18.940;2022-10-16T01:51:41;12.07;86.51
70336;SHT31;57756;47.408;18.940;2022-10-16T01:54:11;12.03;86.86
70336;SHT31;57756;47.408;18.940;2022-10-16T01:56:39;12.02;86.60
70336;SHT31;57756;47.408;18.940;2022-10-16T01:59:14;11.93;86.81
70336;SHT31;57756;47.408;18.940;2022-10-16T02:01:45;11.87;86.95
70336;SHT31;57756;47.408;18.940;2022-10-16T02:04:23;11.79;86.90
70336;SHT31;57756;47.408;18.940;2022-10-16T02:06:49;11.79;86.93
70336;SHT31;57756;47.408;18.940;2022-10-16T02:09:15;11.76;86.87
70336;SHT31;57756;47.408;18.940;2022-10-16T02:11:42;11.73;86.84
70336;SHT31;57756;47.408;18.940;2022-10-16T02:14:08;11.69;86.87
70336;SHT31;57756;47.408;18.940;2022-10-16T02:16:40;11.69;86.81
70336;SHT31;57756;47.408;18.940;2022-10-16T02:19:06;11.66;86.82
70336;SHT31;57756;47.408;18.940;2022-10-16T02:26:49;11.50;87.28
70336;SHT31;57756;47.408;18.940;2022-10-16T02:29:20;11.45;87.58
70336;SHT31;57756;47.408;18.940;2022-10-16T02:31:50;11.39;87.46
70336;SHT31;57756;47.408;18.940;2022-10-16T02:34:18;11.39;87.61
70336;SHT31;57756;47.408;18.940;2022-10-16T02:36:44;11.32;87.86
70336;SHT31;57756;47.408;18.940;2022-10-16T02:39:11;11.32;87.76
70336;SHT31;57756;47.408;18.940;2022-10-16T02:41:37;11.30;87.61
70336;SHT31;57756;47.408;18.940;2022-10-16T02:44:02;11.27;87.89
70336;SHT31;57756;47.408;18.940;2022-10-16T02:46:28;11.24;87.74
70336;SHT31;57756;47.408;18.940;2022-10-16T02:48:53;11.21;87.85
70336;SHT31;57756;47.408;18.940;2022-10-16T02:51:19;11.20;87.98
70336;SHT31;57756;47.408;18.940;2022-10-16T02:53:44;11.14;87.96
70336;SHT31;57756;47.408;18.940;2022-10-16T02:56:10;11.10;87.88
70336;SHT31;57756;47.408;18.940;2022-10-16T02:58:35;11.06;87.99
70336;SHT31;57756;47.408;18.940;2022-10-16T03:01:01;11.03;88.11
70336;SHT31;57756;47.408;18.940;2022-10-16T03:03:26;10.99;88.41
70336;SHT31;57756;47.408;18.940;2022-10-16T03:05:52;10.93;88.32
70336;SHT31;57756;47.408;18.940;2022-10-16T03:08:17;10.90;88.49
70336;SHT31;57756;47.408;18.940;2022-10-16T03:10:48;10.84;88.25
70336;SHT31;57756;47.408;18.940;2022-10-16T03:13:17;10.84;88.16
70336;SHT31;57756;47.408;18.940;2022-10-16T03:15:43;10.84;88.31
70336;SHT31;57756;47.408;18.940;2022-10-16T03:18:09;10.84;88.43
70336;SHT31;57756;47.408;18.940;2022-10-16T03:20:34;10.79;88.65
70336;SHT31;57756;47.408;18.940;2022-10-16T03:22:59;10.73;88.37
70336;SHT31;57756;47.408;18.940;2022-10-16T03:25:25;10.72;88.45
70336;SHT31;57756;47.408;18.940;2022-10-16T03:27:50;10.70;88.43
70336;SHT31;57756;47.408;18.940;2022-10-16T03:30:16;10.68;89.05
70336;SHT31;57756;47.408;18.940;2022-10-16T03:32:44;10.65;89.11
70336;SHT31;57756;47.408;18.940;2022-10-16T03:35:10;10.65;88.90
70336;SHT31;57756;47.408;18.940;2022-10-16T03:37:35;10.65;88.88
70336;SHT31;57756;47.408;18.940;2022-10-16T03:40:02;10.66;88.89
70336;SHT31;57756;47.408;18.940;2022-10-16T03:42:27;10.65;88.97
70336;SHT31;57756;47.408;18.940;2022-10-16T03:44:53;10.58;88.90
70336;SHT31;57756;47.408;18.940;2022-10-16T03:47:18;10.55;89.21
70336;SHT31;57756;47.408;18.940;2022-10-16T03:49:47;10.45;89.61
70336;SHT31;57756;47.408;18.940;2022-10-16T03:52:12;10.45;89.55
70336;SHT31;57756;47.408;18.940;2022-10-16T03:54:38;10.38;89.45
70336;SHT31;57756;47.408;18.940;2022-10-16T03:57:03;10.39;89.10
70336;SHT31;57756;47.408;18.940;2022-10-16T03:59:29;10.38;89.16
70336;SHT31;57756;47.408;18.940;2022-10-16T04:01:54;10.34;89.85
70336;SHT31;57756;47.408;18.940;2022-10-16T04:04:20;10.30;89.30
70336;SHT31;57756;47.408;18.940;2022-10-16T04:06:45;10.28;89.14
70336;SHT31;57756;47.408;18.940;2022-10-16T04:09:11;10.30;89.12
70336;SHT31;57756;47.408;18.940;2022-10-16T04:11:36;10.30;89.11
70336;SHT31;57756;47.408;18.940;2022-10-16T04:14:02;10.24;89.66
70336;SHT31;57756;47.408;18.940;2022-10-16T04:16:28;10.21;89.89
70336;SHT31;57756;47.408;18.940;2022-10-16T04:18:53;10.17;89.88
70336;SHT31;57756;47.408;18.940;2022-10-16T04:21:19;10.14;89.78
70336;SHT31;57756;47.408;18.940;2022-10-16T04:23:44;10.12;89.95
70336;SHT31;57756;47.408;18.940;2022-10-16T04:26:10;10.11;89.76
70336;SHT31;57756;47.408;18.940;2022-10-16T04:28:36;10.08;89.69
70336;SHT31;57756;47.408;18.940;2022-10-16T04:31:04;10.05;89.81
70336;SHT31;57756;47.408;18.940;2022-10-16T04:33:29;10.04;89.82
70336;SHT31;57756;47.408;18.940;2022-10-16T04:35:59;10.00;89.77
70336;SHT31;57756;47.408;18.940;2022-10-16T04:38:25;10.01;89.58
70336;SHT31;57756;47.408;18.940;2022-10-16T04:40:51;9.97;89.54
70336;SHT31;57756;47.408;18.940;2022-10-16T04:43:17;9.98;89.77
70336;SHT31;57756;47.408;18.940;2022-10-16T04:45:42;9.95;89.64
70336;SHT31;57756;47.408;18.940;2022-10-16T04:48:08;9.94;89.71
70336;SHT31;57756;47.408;18.940;2022-10-16T04:50:33;9.93;89.78
70336;SHT31;57756;47.408;18.940;2022-10-16T04:52:59;9.93;89.65
70336;SHT31;57756;47.408;18.940;2022-10-16T04:55:24;9.90;89.60
70336;SHT31;57756;47.408;18.940;2022-10-16T04:57:50;9.86;89.88
70336;SHT31;57756;47.408;18.940;2022-10-16T05:00:15;9.83;90.10
70336;SHT31;57756;47.408;18.940;2022-10-16T05:02:41;9.80;90.12
70336;SHT31;57756;47.408;18.940;2022-10-16T05:05:07;9.80;89.78
70336;SHT31;57756;47.408;18.940;2022-10-16T05:07:32;9.79;90.17
70336;SHT31;57756;47.408;18.940;2022-10-16T05:09:58;9.76;90.00
70336;SHT31;57756;47.408;18.940;2022-10-16T05:12:23;9.77;90.04
70336;SHT31;57756;47.408;18.940;2022-10-16T05:14:49;9.80;90.08
70336;SHT31;57756;47.408;18.940;2022-10-16T05:17:14;9.80;90.07
70336;SHT31;57756;47.408;18.940;2022-10-16T05:19:39;9.82;89.99
70336;SHT31;57756;47.408;18.940;2022-10-16T05:22:05;9.76;90.04
70336;SHT31;57756;47.408;18.940;2022-10-16T05:24:31;9.80;90.02
70336;SHT31;57756;47.408;18.940;2022-10-16T05:26:56;9.80;90.14
70336;SHT31;57756;47.408;18.940;2022-10-16T05:29:22;9.79;90.28
70336;SHT31;57756;47.408;18.940;2022-10-16T05:31:50;9.83;90.69
70336;SHT31;57756;47.408;18.940;2022-10-16T05:34:16;9.83;90.53
70336;SHT31;57756;47.408;18.940;2022-10-16T05:36:41;9.91;90.32
70336;SHT31;57756;47.408;18.940;2022-10-16T05:39:07;9.94;90.18
70336;SHT31;57756;47.408;18.940;2022-10-16T05:41:33;10.04;90.12
70336;SHT31;57756;47.408;18.940;2022-10-16T05:43:58;10.08;90.13
70336;SHT31;57756;47.408;18.940;2022-10-16T05:46:24;10.15;90.58
70336;SHT31;57756;47.408;18.940;2022-10-16T05:48:52;10.27;90.01
70336;SHT31;57756;47.408;18.940;2022-10-16T05:51:18;10.35;89.88
70336;SHT31;57756;47.408;18.940;2022-10-16T05:53:44;10.42;88.91
70336;SHT31;57756;47.408;18.940;2022-10-16T05:56:10;10.50;88.89
70336;SHT31;57756;47.408;18.940;2022-10-16T05:58:37;10.66;88.65
70336;SHT31;57756;47.408;18.940;2022-10-16T06:01:04;10.80;88.43
70336;SHT31;57756;47.408;18.940;2022-10-16T06:03:30;10.90;88.65
70336;SHT31;57756;47.408;18.940;2022-10-16T06:05:55;11.00;87.82
70336;SHT31;57756;47.408;18.940;2022-10-16T06:08:22;11.14;86.63
70336;SHT31;57756;47.408;18.940;2022-10-16T06:10:48;11.27;86.31
70336;SHT31;57756;47.408;18.940;2022-10-16T06:13:15;11.44;84.38
70336;SHT31;57756;47.408;18.940;2022-10-16T06:15:41;11.57;86.20
70336;SHT31;57756;47.408;18.940;2022-10-16T06:18:10;11.71;85.77
70336;SHT31;57756;47.408;18.940;2022-10-16T06:20:36;11.92;83.44
70336;SHT31;57756;47.408;18.940;2022-10-16T06:23:02;12.06;83.52
70336;SHT31;57756;47.408;18.940;2022-10-16T06:25:32;12.19;82.43
70336;SHT31;57756;47.408;18.940;2022-10-16T06:27:57;12.31;81.38
70336;SHT31;57756;47.408;18.940;2022-10-16T06:30:23;12.41;80.49
70336;SHT31;57756;47.408;18.940;2022-10-16T06:32:48;12.59;79.75
70336;SHT31;57756;47.408;18.940;2022-10-16T06:35:14;12.75;80.83
70336;SHT31;57756;47.408;18.940;2022-10-16T06:37:39;12.85;79.27
70336;SHT31;57756;47.408;18.940;2022-10-16T06:40:05;12.88;78.65
70336;SHT31;57756;47.408;18.940;2022-10-16T06:42:31;13.00;78.94
70336;SHT31;57756;47.408;18.940;2022-10-16T06:44:56;13.03;77.77
70336;SHT31;57756;47.408;18.940;2022-10-16T06:47:22;13.19;78.29
70336;SHT31;57756;47.408;18.940;2022-10-16T06:49:47;13.27;77.38
70336;SHT31;57756;47.408;18.940;2022-10-16T06:52:12;13.32;77.34
70336;SHT31;57756;47.408;18.940;2022-10-16T06:54:38;13.51;78.86
70336;SHT31;57756;47.408;18.940;2022-10-16T06:57:03;13.58;75.71
70336;SHT31;57756;47.408;18.940;2022-10-16T06:59:29;13.81;76.73
70336;SHT31;57756;47.408;18.940;2022-10-16T07:01:54;14.01;75.03
70336;SHT31;57756;47.408;18.940;2022-10-16T07:04:20;14.04;75.08
70336;SHT31;57756;47.408;18.940;2022-10-16T07:06:45;14.12;74.69
70336;SHT31;57756;47.408;18.940;2022-10-16T07:09:11;14.25;74.77
70336;SHT31;57756;47.408;18.940;2022-10-16T07:11:38;14.41;73.93
70336;SHT31;57756;47.408;18.940;2022-10-16T07:14:04;14.64;74.69
70336;SHT31;57756;47.408;18.940;2022-10-16T07:16:31;14.77;73.05
70336;SHT31;57756;47.408;18.940;2022-10-16T07:18:59;15.01;74.66
70336;SHT31;57756;47.408;18.940;2022-10-16T07:21:27;15.21;72.79
70336;SHT31;57756;47.408;18.940;2022-10-16T07:23:55;15.29;71.53
70336;SHT31;57756;47.408;18.940;2022-10-16T07:26:23;15.18;71.91
70336;SHT31;57756;47.408;18.940;2022-10-16T07:28:49;15.21;71.58
70336;SHT31;57756;47.408;18.940;2022-10-16T07:31:15;15.25;71.26
70336;SHT31;57756;47.408;18.940;2022-10-16T07:33:43;15.50;72.98
70336;SHT31;57756;47.408;18.940;2022-10-16T07:36:11;15.64;71.01
70336;SHT31;57756;47.408;18.940;2022-10-16T07:38:36;15.76;70.39
70336;SHT31;57756;47.408;18.940;2022-10-16T07:41:05;15.98;69.94
70336;SHT31;57756;47.408;18.940;2022-10-16T07:43:31;15.93;69.07
70336;SHT31;57756;47.408;18.940;2022-10-16T07:45:56;16.09;68.62
70336;SHT31;57756;47.408;18.940;2022-10-16T07:48:22;16.32;68.65
70336;SHT31;57756;47.408;18.940;2022-10-16T07:50:49;16.65;67.49
70336;SHT31;57756;47.408;18.940;2022-10-16T07:53:14;16.76;67.23
70336;SHT31;57756;47.408;18.940;2022-10-16T07:55:40;17.11;67.39
70336;SHT31;57756;47.408;18.940;2022-10-16T07:58:06;17.35;67.10
70336;SHT31;57756;47.408;18.940;2022-10-16T08:00:32;17.32;66.08
70336;SHT31;57756;47.408;18.940;2022-10-16T08:02:58;17.34;65.75
70336;SHT31;57756;47.408;18.940;2022-10-16T08:05:28;17.20;66.04
70336;SHT31;57756;47.408;18.940;2022-10-16T08:07:55;17.35;65.43
70336;SHT31;57756;47.408;18.940;2022-10-16T08:10:22;17.43;65.55
70336;SHT31;57756;47.408;18.940;2022-10-16T08:12:48;17.63;65.48
70336;SHT31;57756;47.408;18.940;2022-10-16T08:15:13;18.13;63.87
70336;SHT31;57756;47.408;18.940;2022-10-16T08:17:39;18.14;63.61
70336;SHT31;57756;47.408;18.940;2022-10-16T08:20:05;18.54;63.64
70336;SHT31;57756;47.408;18.940;2022-10-16T08:22:30;18.49;62.58
70336;SHT31;57756;47.408;18.940;2022-10-16T08:24:56;19.23;62.66
70336;SHT31;57756;47.408;18.940;2022-10-16T08:27:22;19.20;61.84
70336;SHT31;57756;47.408;18.940;2022-10-16T08:29:48;19.38;61.02
70336;SHT31;57756;47.408;18.940;2022-10-16T08:32:14;19.44;60.51
70336;SHT31;57756;47.408;18.940;2022-10-16T08:34:40;19.58;59.41
70336;SHT31;57756;47.408;18.940;2022-10-16T08:37:05;19.75;59.69
70336;SHT31;57756;47.408;18.940;2022-10-16T08:39:32;19.67;59.02
70336;SHT31;57756;47.408;18.940;2022-10-16T08:42:11;19.95;59.65
70336;SHT31;57756;47.408;18.940;2022-10-16T08:45:20;19.78;58.75
70336;SHT31;57756;47.408;18.940;2022-10-16T08:50:30;19.95;59.13
70336;SHT31;57756;47.408;18.940;2022-10-16T08:52:56;19.99;59.64
70336;SHT31;57756;47.408;18.940;2022-10-16T08:55:33;20.34;58.48
70336;SHT31;57756;47.408;18.940;2022-10-16T08:58:00;20.39;59.48
70336;SHT31;57756;47.408;18.940;2022-10-16T09:00:26;20.67;57.84
70336;SHT31;57756;47.408;18.940;2022-10-16T09:03:01;21.12;57.46
70336;SHT31;57756;47.408;18.940;2022-10-16T09:08:35;20.36;57.07
70336;SHT31;57756;47.408;18.940;2022-10-16T09:13:53;20.95;59.21
70336;SHT31;57756;47.408;18.940;2022-10-16T09:21:39;21.54;56.29
70336;SHT31;57756;47.408;18.940;2022-10-16T09:24:16;21.22;56.37
70336;SHT31;57756;47.408;18.940;2022-10-16T09:26:43;21.35;56.25
70336;SHT31;57756;47.408;18.940;2022-10-16T09:29:13;21.42;55.99
70336;SHT31;57756;47.408;18.940;2022-10-16T09:31:39;21.73;56.63
70336;SHT31;57756;47.408;18.940;2022-10-16T09:34:05;22.08;55.64
70336;SHT31;57756;47.408;18.940;2022-10-16T09:36:41;22.00;56.15
70336;SHT31;57756;47.408;18.940;2022-10-16T09:39:09;21.78;54.69
70336;SHT31;57756;47.408;18.940;2022-10-16T09:41:37;21.49;55.22
70336;SHT31;57756;47.408;18.940;2022-10-16T09:44:15;21.46;55.94
70336;SHT31;57756;47.408;18.940;2022-10-16T09:46:43;21.47;57.11
70336;SHT31;57756;47.408;18.940;2022-10-16T09:49:23;22.04;56.86
70336;SHT31;57756;47.408;18.940;2022-10-16T09:51:49;21.97;55.22
70336;SHT31;57756;47.408;18.940;2022-10-16T09:54:17;21.97;56.51
70336;SHT31;57756;47.408;18.940;2022-10-16T09:56:43;21.64;56.08
70336;SHT31;57756;47.408;18.940;2022-10-16T09:59:12;21.98;56.56
70336;SHT31;57756;47.408;18.940;2022-10-16T10:01:48;21.70;55.64
70336;SHT31;57756;47.408;18.940;2022-10-16T10:04:14;22.02;55.78
70336;SHT31;57756;47.408;18.940;2022-10-16T10:06:49;22.16;54.68
70336;SHT31;57756;47.408;18.940;2022-10-16T10:09:21;21.87;55.94
70336;SHT31;57756;47.408;18.940;2022-10-16T10:14:34;22.59;56.60
70336;SHT31;57756;47.408;18.940;2022-10-16T10:27:46;22.70;53.93
70336;SHT31;57756;47.408;18.940;2022-10-16T10:33:11;22.19;55.18
70336;SHT31;57756;47.408;18.940;2022-10-16T10:43:41;21.88;56.16
70336;SHT31;57756;47.408;18.940;2022-10-16T10:46:16;21.74;56.69
70336;SHT31;57756;47.408;18.940;2022-10-16T10:51:13;21.46;57.58
70336;SHT31;57756;47.408;18.940;2022-10-16T10:53:50;21.40;56.76
70336;SHT31;57756;47.408;18.940;2022-10-16T10:59:24;21.39;57.41
70336;SHT31;57756;47.408;18.940;2022-10-16T11:07:22;21.54;57.95
70336;SHT31;57756;47.408;18.940;2022-10-16T11:09:57;21.42;57.83
70336;SHT31;57756;47.408;18.940;2022-10-16T11:12:30;21.56;57.80
70336;SHT31;57756;47.408;18.940;2022-10-16T11:15:14;21.63;57.82
70336;SHT31;57756;47.408;18.940;2022-10-16T11:17:45;21.58;57.22
70336;SHT31;57756;47.408;18.940;2022-10-16T11:20:14;21.57;57.46
70336;SHT31;57756;47.408;18.940;2022-10-16T11:22:51;21.10;56.25
70336;SHT31;57756;47.408;18.940;2022-10-16T11:30:28;20.92;58.33
70336;SHT31;57756;47.408;18.940;2022-10-16T11:35:43;21.09;56.54
70336;SHT31;57756;47.408;18.940;2022-10-16T11:38:38;21.20;58.91
70336;SHT31;57756;47.408;18.940;2022-10-16T11:41:04;21.12;58.65
70336;SHT31;57756;47.408;18.940;2022-10-16T11:43:48;21.02;57.33
70336;SHT31;57756;47.408;18.940;2022-10-16T11:46:19;20.96;58.45
70336;SHT31;57756;47.408;18.940;2022-10-16T11:49:12;20.92;58.47
70336;SHT31;57756;47.408;18.940;2022-10-16T11:51:39;20.95;60.36
70336;SHT31;57756;47.408;18.940;2022-10-16T11:56:44;21.09;57.86
70336;SHT31;57756;47.408;18.940;2022-10-16T11:59:26;21.05;58.91
70336;SHT31;57756;47.408;18.940;2022-10-16T12:04:44;20.96;58.56
70336;SHT31;57756;47.408;18.940;2022-10-16T12:07:39;21.02;59.10
70336;SHT31;57756;47.408;18.940;2022-10-16T12:10:26;20.91;57.68
70336;SHT31;57756;47.408;18.940;2022-10-16T12:12:52;20.94;59.56
70336;SHT31;57756;47.408;18.940;2022-10-16T12:15:29;20.91;57.96
70336;SHT31;57756;47.408;18.940;2022-10-16T12:17:55;20.88;58.61
70336;SHT31;57756;47.408;18.940;2022-10-16T12:20:26;21.02;60.50
70336;SHT31;57756;47.408;18.940;2022-10-16T12:22:55;20.91;60.22
70336;SHT31;57756;47.408;18.940;2022-10-16T12:25:30;20.90;59.30
70336;SHT31;57756;47.408;18.940;2022-10-16T12:28:00;20.84;60.00
70336;SHT31;57756;47.408;18.940;2022-10-16T12:30:28;20.84;59.05
70336;SHT31;57756;47.408;18.940;2022-10-16T12:32:56;20.84;58.23
70336;SHT31;57756;47.408;18.940;2022-10-16T12:35:28;20.81;59.73
70336;SHT31;57756;47.408;18.940;2022-10-16T12:38:19;20.77;59.79
70336;SHT31;57756;47.408;18.940;2022-10-16T12:46:02;20.71;59.73
70336;SHT31;57756;47.408;18.940;2022-10-16T12:48:28;20.75;59.70
70336;SHT31;57756;47.408;18.940;2022-10-16T12:50:55;20.55;58.22
70336;SHT31;57756;47.408;18.940;2022-10-16T12:53:23;20.58;58.67
70336;SHT31;57756;47.408;18.940;2022-10-16T12:58:56;20.55;60.50
70336;SHT31;57756;47.408;18.940;2022-10-16T13:01:34;20.64;60.00
70336;SHT31;57756;47.408;18.940;2022-10-16T13:07:01;20.72;60.94
70336;SHT31;57756;47.408;18.940;2022-10-16T13:09:32;20.61;59.62
70336;SHT31;57756;47.408;18.940;2022-10-16T13:12:15;20.58;59.45
70336;SHT31;57756;47.408;18.940;2022-10-16T13:20:19;20.61;60.19
70336;SHT31;57756;47.408;18.940;2022-10-16T13:28:32;20.54;59.37
70336;SHT31;57756;47.408;18.940;2022-10-16T13:31:02;20.48;59.24
70336;SHT31;57756;47.408;18.940;2022-10-16T13:33:41;20.43;59.17
70336;SHT31;57756;47.408;18.940;2022-10-16T13:36:19;20.40;59.36
70336;SHT31;57756;47.408;18.940;2022-10-16T13:38:45;20.45;59.70
70336;SHT31;57756;47.408;18.940;2022-10-16T13:41:16;20.45;60.59
70336;SHT31;57756;47.408;18.940;2022-10-16T13:43:48;20.37;60.21
70336;SHT31;57756;47.408;18.940;2022-10-16T13:46:16;20.41;60.37
70336;SHT31;57756;47.408;18.940;2022-10-16T13:48:42;20.40;58.49
70336;SHT31;57756;47.408;18.940;2022-10-16T13:51:16;20.32;59.95
70336;SHT31;57756;47.408;18.940;2022-10-16T13:53:43;20.29;61.08
70336;SHT31;57756;47.408;18.940;2022-10-16T13:56:16;20.29;60.31
70336;SHT31;57756;47.408;18.940;2022-10-16T13:58:42;20.26;60.87
70336;SHT31;57756;47.408;18.940;2022-10-16T14:01:24;20.20;61.37
70336;SHT31;57756;47.408;18.940;2022-10-16T14:03:51;20.15;60.62
70336;SHT31;57756;47.408;18.940;2022-10-16T14:06:21;20.08;60.48
70336;SHT31;57756;47.408;18.940;2022-10-16T14:09:08;20.04;60.34
70336;SHT31;57756;47.408;18.940;2022-10-16T14:11:44;20.09;60.41
70336;SHT31;57756;47.408;18.940;2022-10-16T14:14:12;20.05;59.61
70336;SHT31;57756;47.408;18.940;2022-10-16T14:16:40;20.08;60.06
70336;SHT31;57756;47.408;18.940;2022-10-16T14:19:06;20.02;60.82
70336;SHT31;57756;47.408;18.940;2022-10-16T14:21:40;19.97;61.04
70336;SHT31;57756;47.408;18.940;2022-10-16T14:24:13;20.04;58.83
70336;SHT31;57756;47.408;18.940;2022-10-16T14:26:43;20.00;59.04
70336;SHT31;57756;47.408;18.940;2022-10-16T14:29:18;19.92;60.02
70336;SHT31;57756;47.408;18.940;2022-10-16T14:31:58;19.85;60.16
70336;SHT31;57756;47.408;18.940;2022-10-16T14:36:55;19.77;60.50
70336;SHT31;57756;47.408;18.940;2022-10-16T14:39:22;19.74;59.96
70336;SHT31;57756;47.408;18.940;2022-10-16T14:41:50;19.67;60.94
70336;SHT31;57756;47.408;18.940;2022-10-16T14:44:22;19.67;60.65
70336;SHT31;57756;47.408;18.940;2022-10-16T14:46:51;19.61;60.93
70336;SHT31;57756;47.408;18.940;2022-10-16T14:49:18;19.61;60.94
70336;SHT31;57756;47.408;18.940;2022-10-16T14:51:45;19.54;61.99
70336;SHT31;57756;47.408;18.940;2022-10-16T14:54:12;19.50;61.13
70336;SHT31;57756;47.408;18.940;2022-10-16T14:56:57;19.47;61.74
70336;SHT31;57756;47.408;18.940;2022-10-16T14:59:43;19.35;62.57
70336;SHT31;57756;47.408;18.940;2022-10-16T15:04:38;19.16;62.60
70336;SHT31;57756;47.408;18.940;2022-10-16T15:07:03;19.11;62.79
70336;SHT31;57756;47.408;18.940;2022-10-16T15:09:29;19.07;63.33
70336;SHT31;57756;47.408;18.940;2022-10-16T15:11:54;18.99;63.48
70336;SHT31;57756;47.408;18.940;2022-10-16T15:14:19;18.92;63.73
70336;SHT31;57756;47.408;18.940;2022-10-16T15:16:45;18.81;64.51
70336;SHT31;57756;47.408;18.940;2022-10-16T15:19:11;18.73;65.24
70336;SHT31;57756;47.408;18.940;2022-10-16T15:21:36;18.65;65.66
70336;SHT31;57756;47.408;18.940;2022-10-16T15:24:02;18.54;67.17
70336;SHT31;57756;47.408;18.940;2022-10-16T15:26:28;18.40;68.35
70336;SHT31;57756;47.408;18.940;2022-10-16T15:28:55;18.34;68.25
70336;SHT31;57756;47.408;18.940;2022-10-16T15:31:21;18.24;68.86
70336;SHT31;57756;47.408;18.940;2022-10-16T15:33:52;18.07;70.32
70336;SHT31;57756;47.408;18.940;2022-10-16T15:36:39;17.91;70.98
70336;SHT31;57756;47.408;18.940;2022-10-16T15:39:19;17.79;71.70
70336;SHT31;57756;47.408;18.940;2022-10-16T15:41:46;17.66;71.91
70336;SHT31;57756;47.408;18.940;2022-10-16T15:44:18;17.55;72.89
70336;SHT31;57756;47.408;18.940;2022-10-16T15:46:44;17.42;73.47
70336;SHT31;57756;47.408;18.940;2022-10-16T15:49:11;17.32;73.76
70336;SHT31;57756;47.408;18.940;2022-10-16T15:51:41;17.17;74.42
70336;SHT31;57756;47.408;18.940;2022-10-16T15:54:06;17.01;74.65
70336;SHT31;57756;47.408;18.940;2022-10-16T15:56:32;16.84;75.63
70336;SHT31;57756;47.408;18.940;2022-10-16T15:58:59;16.80;76.15
70336;SHT31;57756;47.408;18.940;2022-10-16T16:01:26;16.74;76.00
70336;SHT31;57756;47.408;18.940;2022-10-16T16:03:55;16.70;75.68
70336;SHT31;57756;47.408;18.940;2022-10-16T16:06:22;16.60;75.70
70336;SHT31;57756;47.408;18.940;2022-10-16T16:08:49;16.56;75.85
70336;SHT31;57756;47.408;18.940;2022-10-16T16:11:16;16.48;75.84
70336;SHT31;57756;47.408;18.940;2022-10-16T16:13:42;16.44;75.71
70336;SHT31;57756;47.408;18.940;2022-10-16T16:16:12;16.41;75.59
70336;SHT31;57756;47.408;18.940;2022-10-16T16:18:38;16.32;75.75
70336;SHT31;57756;47.408;18.940;2022-10-16T16:21:04;16.28;75.91
70336;SHT31;57756;47.408;18.940;2022-10-16T16:23:30;16.15;76.29
70336;SHT31;57756;47.408;18.940;2022-10-16T16:26:12;16.11;76.48
70336;SHT31;57756;47.408;18.940;2022-10-16T16:28:39;16.05;76.48
70336;SHT31;57756;47.408;18.940;2022-10-16T16:31:05;16.01;76.38
70336;SHT31;57756;47.408;18.940;2022-10-16T16:33:31;15.90;76.91
70336;SHT31;57756;47.408;18.940;2022-10-16T16:36:00;15.70;77.96
70336;SHT31;57756;47.408;18.940;2022-10-16T16:38:26;15.66;78.11
70336;SHT31;57756;47.408;18.940;2022-10-16T16:40:52;15.64;77.91
70336;SHT31;57756;47.408;18.940;2022-10-16T16:43:19;15.60;77.97
70336;SHT31;57756;47.408;18.940;2022-10-16T16:45:44;15.57;77.95
70336;SHT31;57756;47.408;18.940;2022-10-16T16:48:10;15.42;78.76
70336;SHT31;57756;47.408;18.940;2022-10-16T16:50:37;15.32;79.06
70336;SHT31;57756;47.408;18.940;2022-10-16T16:53:03;15.25;79.26
70336;SHT31;57756;47.408;18.940;2022-10-16T16:55:28;15.22;79.33
70336;SHT31;57756;47.408;18.940;2022-10-16T16:57:54;15.18;79.37
70336;SHT31;57756;47.408;18.940;2022-10-16T17:00:19;15.15;79.63
70336;SHT31;57756;47.408;18.940;2022-10-16T17:02:48;15.05;79.64
70336;SHT31;57756;47.408;18.940;2022-10-16T17:05:14;14.99;80.10
70336;SHT31;57756;47.408;18.940;2022-10-16T17:07:39;14.85;80.61
70336;SHT31;57756;47.408;18.940;2022-10-16T17:10:06;14.74;81.12